Flight Track Log - Related Links

Times and Time Zones

All times are in EST time to prevent confusion due to time zone crossing. See the CSN6877 flight status page for this flight to view local times or setup timezone preferences in your user account.


Time Position Orientation Groundspeed Altitude Reporting Facility
EST Latitude Longitude Course Direction KTS MPH feet Rate Location/Type
Sun 09:18:00 PM 43.5694 86.4467 246° West  Level Estimated
Sun 09:19:00 PM 43.5265 86.3191 245° Southwest  Level Estimated
Sun 09:20:00 PM 43.4835 86.1916 245° Southwest  Level Estimated
Sun 09:21:00 PM 43.4404 86.0643 245° Southwest  Level Estimated
Sun 09:22:00 PM 43.3971 85.9372 245° Southwest  Level Estimated
Sun 09:23:00 PM 43.3537 85.8103 245° Southwest  Level Estimated
Sun 09:24:00 PM 43.3101 85.6836 245° Southwest  Level Estimated
Sun 09:25:00 PM 43.2664 85.5571 245° Southwest  Level Estimated
Sun 09:26:00 PM 43.2226 85.4307 245° Southwest  Level Estimated
Sun 09:27:00 PM 43.1786 85.3046 244° Southwest  Level Estimated
Sun 09:28:00 PM 43.1345 85.1786 244° Southwest  Level Estimated
Sun 09:29:00 PM 43.0902 85.0527 244° Southwest  Level Estimated
Sun 09:30:00 PM 43.0458 84.9271 244° Southwest  Level Estimated
Sun 09:31:00 PM 43.0013 84.8017 244° Southwest  Level Estimated
Sun 09:32:00 PM 42.9566 84.6764 244° Southwest  Level Estimated
Sun 09:33:00 PM 42.9118 84.5513 244° Southwest  Level Estimated
Sun 09:34:00 PM 42.8669 84.4264 244° Southwest  Level Estimated
Sun 09:35:00 PM 42.8218 84.3017 244° Southwest  Level Estimated
Sun 09:36:00 PM 42.7766 84.1772 244° Southwest  Level Estimated
Sun 09:37:00 PM 42.7312 84.0528 244° Southwest  Level Estimated
Sun 09:38:00 PM 42.6858 83.9286 244° Southwest  Level Estimated
Sun 09:39:00 PM 42.6401 83.8046 243° Southwest  Level Estimated
Sun 09:40:00 PM 42.5944 83.6808 243° Southwest  Level Estimated
Sun 09:41:00 PM 42.5485 83.5572 243° Southwest  Level Estimated
Sun 09:42:00 PM 42.5025 83.4337 243° Southwest  Level Estimated
Sun 09:43:00 PM 42.4563 83.3105 243° Southwest  Level Estimated
Sun 09:44:00 PM 42.4101 83.1874 243° Southwest  Level Estimated
Sun 09:45:00 PM 42.3637 83.0645 243° Southwest  Level Estimated
Sun 09:46:00 PM 42.3171 82.9418 243° Southwest  Level Estimated
Sun 09:47:00 PM 42.2705 82.8193 243° Southwest  Level Estimated
Sun 09:48:00 PM 42.2237 82.6969 243° Southwest  Level Estimated
Sun 09:49:00 PM 42.1767 82.5747 243° Southwest  Level Estimated
Sun 09:50:00 PM 42.1297 82.4527 243° Southwest  Level Estimated
Sun 09:51:00 PM 42.0825 82.3309 242° Southwest  Level Estimated
Sun 09:52:00 PM 42.0351 82.2093 242° Southwest  Level Estimated
Sun 09:53:00 PM 41.9877 82.0878 242° Southwest  Level Estimated
Sun 09:54:00 PM 41.9401 81.9666 242° Southwest  Level Estimated
Sun 09:55:00 PM 41.8924 81.8455 242° Southwest  Level Estimated
Sun 09:56:00 PM 41.8446 81.7246 242° Southwest  Level Estimated
Sun 09:57:00 PM 41.7966 81.6039 242° Southwest  Level Estimated
Sun 09:58:00 PM 41.7486 81.4833 242° Southwest  Level Estimated
Sun 09:59:00 PM 41.7004 81.3630 242° Southwest  Level Estimated
Sun 10:00:00 PM 41.6520 81.2428 242° Southwest  Level Estimated
Sun 10:01:00 PM 41.6036 81.1228 242° Southwest  Level Estimated
Sun 10:02:00 PM 41.5550 81.0030 242° Southwest  Level Estimated
Sun 10:03:00 PM 41.5063 80.8833 242° Southwest  Level Estimated
Sun 10:04:00 PM 41.4574 80.7638 241° Southwest  Level Estimated
Sun 10:05:00 PM 41.4085 80.6446 241° Southwest  Level Estimated
Sun 10:06:00 PM 41.3594 80.5255 241° Southwest  Level Estimated
Sun 10:07:00 PM 41.3102 80.4065 241° Southwest  Level Estimated
Sun 10:08:00 PM 41.2625 80.2917 241° Southwest  Level Estimated
Sun 10:09:00 PM 41.2625 80.2917 270° West  Level Estimated
Sun 10:10:00 PM 41.2625 80.2917 270° West  Level Estimated
Sun 10:11:00 PM 41.2625 80.2917 270° West  Level Estimated
Sun 10:12:00 PM 41.2625 80.2917 270° West  Level Estimated
Sun 10:13:00 PM 41.2625 80.2917 270° West  Level Estimated
Sun 10:14:00 PM 41.2625 80.2917 270° West  Level Estimated
Sun 10:15:00 PM 41.2625 80.2917 270° West  Level Estimated
Sun 10:16:00 PM 41.2625 80.2917 270° West  Level Estimated

Login

Don't have an account? Register now (free) for customized features, flight alerts, and more!